Time;durP1;ratioP1;P1;durP2;ratioP2;P2;SDS_P1;SDS_P2;PMS_P1;PMS_P2;Temp;Humidity;BMP_temperature;BMP_pressure;BME280_temperature;BME280_humidity;BME280_pressure;Samples;Min_cycle;Max_cycle;Signal;HPM_P1;HPM_P2
2023/02/20 00:02:30;;;;;;;9.80;2.50;;;;;;;0.08;95.19;100967.92;220398;1272;138019;-84
2023/02/20 00:08:30;;;;;;;7.90;2.10;;;;;;;0.09;95.40;100977.80;219997;1272;138157;-84
2023/02/20 00:14:31;;;;;;;9.30;3.00;;;;;;;0.11;95.50;100979.02;220472;1272;138140;-84
2023/02/20 00:20:33;;;;;;;8.70;2.20;;;;;;;0.17;95.59;100978.66;219987;1272;138049;-84
2023/02/20 00:26:33;;;;;;;9.00;2.30;;;;;;;0.21;95.72;100980.09;219879;1272;138529;-85
2023/02/20 00:32:31;;;;;;;9.20;2.10;;;;;;;0.30;96.04;100974.91;220576;1272;138280;-84
2023/02/20 00:38:12;;;;;;;;;;;;;;;0.40;96.18;100968.70;219955;1272;138253;-84
2023/02/20 00:44:13;;;;;;;11.00;2.70;;;;;;;0.49;96.47;100965.73;220531;1272;124534;-84
2023/02/20 00:50:11;;;;;;;12.30;3.10;;;;;;;0.58;96.43;100953.31;219977;1272;138459;-85
2023/02/20 00:55:52;;;;;;;;;;;;;;;0.66;96.51;100948.24;220589;1270;138288;-84
2023/02/20 01:01:53;;;;;;;10.50;3.80;;;;;;;0.70;96.70;100929.16;220455;1272;124593;-83
2023/02/20 01:07:54;;;;;;;10.90;2.60;;;;;;;0.74;96.48;100913.30;219995;1269;138731;-84
2023/02/20 01:13:53;;;;;;;;;;;;;;;;;;;;;
2023/02/20 01:19:56;;;;;;;7.70;2.40;;;;;;;0.76;96.60;100928.77;219992;1272;138243;-84
2023/02/20 01:31:59;;;;;;;10.30;3.10;;;;;;;0.79;97.29;100905.69;220266;1272;138242;-86
2023/02/20 01:38:05;;;;;;;8.60;2.30;;;;;;;0.79;97.16;100894.95;220043;1270;138458;-84
2023/02/20 01:44:02;;;;;;;6.40;2.20;;;;;;;0.80;97.36;100892.02;220573;1272;137104;-86
2023/02/20 01:50:06;;;;;;;5.80;2.00;;;;;;;0.82;97.77;100887.97;219904;1269;138280;-85
2023/02/20 01:56:03;;;;;;;9.10;2.30;;;;;;;0.81;97.84;100877.41;220634;1271;137089;-83
2023/02/20 02:02:04;;;;;;;7.60;2.00;;;;;;;0.84;98.66;100875.14;220296;1272;138093;-87
2023/02/20 02:08:05;;;;;;;7.00;1.90;;;;;;;0.90;98.77;100868.35;220099;1269;138186;-84
2023/02/20 02:14:07;;;;;;;7.10;2.10;;;;;;;0.98;98.96;100875.94;220482;1271;138109;-85
2023/02/20 02:38:33;;;;;;;11.70;2.80;;;;;;;1.20;99.13;100801.55;219953;1269;138757;-85
2023/02/20 02:44:47;;;;;;;7.90;2.30;;;;;;;1.25;99.11;100807.39;220536;1268;138269;-83
2023/02/20 02:56:52;;;;;;;12.10;3.60;;;;;;;1.36;99.45;100816.73;219952;1272;141343;-84
2023/02/20 03:02:53;;;;;;;10.60;2.60;;;;;;;1.41;99.47;100808.65;220492;1272;138420;-85
2023/02/20 03:08:57;;;;;;;12.00;2.70;;;;;;;1.45;99.67;100796.46;220051;1269;138500;-86
2023/02/20 03:21:19;;;;;;;9.90;2.70;;;;;;;1.51;99.76;100778.02;220003;1269;138413;-85
2023/02/20 03:45:22;;;;;;;9.20;2.60;;;;;;;1.63;100.00;100772.25;220533;1271;137955;-85
2023/02/20 03:57:32;;;;;;;12.10;3.10;;;;;;;1.67;100.00;100765.44;220490;1272;138555;-85
2023/02/20 04:03:33;;;;;;;8.40;2.70;;;;;;;1.70;100.00;100769.46;220558;1268;138300;-85
2023/02/20 04:09:34;;;;;;;11.30;4.00;;;;;;;1.72;100.00;100755.80;220098;1269;138819;-84
2023/02/20 04:15:35;;;;;;;12.00;3.10;;;;;;;1.75;100.00;100755.63;220471;1269;138545;-84
2023/02/20 04:27:37;;;;;;;10.70;3.70;;;;;;;1.81;100.00;100747.54;219963;1269;140313;-82
2023/02/20 04:39:38;;;;;;;;;;;;;;;;;;;;;
2023/02/20 04:45:41;;;;;;;12.70;3.90;;;;;;;1.89;100.00;100730.40;220593;1269;138134;-85
2023/02/20 04:51:42;;;;;;;9.60;3.60;;;;;;;1.91;100.00;100723.77;223195;1269;139168;-84
2023/02/20 04:57:44;;;;;;;10.40;3.70;;;;;;;1.94;100.00;100703.92;220322;1269;138624;-83
2023/02/20 05:10:11;;;;;;;11.80;3.80;;;;;;;1.99;100.00;100665.86;219957;1268;138805;-84
2023/02/20 05:15:48;;;;;;;14.30;4.10;;;;;;;1.99;100.00;100660.15;216457;1269;137243;-84
2023/02/20 05:27:46;;;;;;;;;;;;;;;;;;;;;
2023/02/20 05:33:49;;;;;;;10.10;4.20;;;;;;;1.99;100.00;100628.34;221135;1268;138335;-84
2023/02/20 05:39:51;;;;;;;14.90;4.90;;;;;;;2.01;100.00;100618.80;219929;1272;138910;-83
2023/02/20 05:45:52;;;;;;;15.30;5.20;;;;;;;2.01;100.00;100614.92;220564;1272;138268;-83
2023/02/20 05:51:51;;;;;;;;;;;;;;;;;;;;;
2023/02/20 06:03:55;;;;;;;13.10;5.70;;;;;;;2.08;100.00;100595.02;220438;1269;138623;-85
2023/02/20 06:09:55;;;;;;;17.00;7.60;;;;;;;2.10;100.00;100581.42;219834;1270;138417;-84
2023/02/20 06:21:58;;;;;;;20.80;13.10;;;;;;;2.17;100.00;100571.27;220292;1269;138854;-86
2023/02/20 06:27:59;;;;;;;22.10;9.20;;;;;;;2.20;100.00;100575.27;220024;1269;139129;-84
2023/02/20 06:34:00;;;;;;;34.00;19.00;;;;;;;2.24;100.00;100556.30;220337;1269;138265;-89
2023/02/20 06:40:01;;;;;;;23.10;11.50;;;;;;;2.28;100.00;100538.86;219788;1269;138860;-89
2023/02/20 06:46:02;;;;;;;21.60;13.90;;;;;;;2.30;100.00;100526.56;220181;1272;138660;-88
2023/02/20 06:52:04;;;;;;;17.30;9.40;;;;;;;2.34;100.00;100523.43;220168;1272;138597;-89
2023/02/20 06:58:05;;;;;;;21.60;6.80;;;;;;;2.39;100.00;100512.31;219758;1269;138924;-87
2023/02/20 07:04:06;;;;;;;13.30;5.50;;;;;;;2.44;100.00;100500.96;220351;1269;138263;-90
2023/02/20 07:09:59;;;;;;;;;;;;;;;;;;;;;
2023/02/20 07:16:06;;;;;;;;;;;;;;;;;;;;;
2023/02/20 07:22:09;;;;;;;19.60;6.60;;;;;;;2.68;100.00;100449.18;220217;1268;138356;-86
2023/02/20 07:28:10;;;;;;;17.30;7.90;;;;;;;2.78;100.00;100426.51;219841;1268;138778;-86
2023/02/20 07:34:11;;;;;;;19.40;8.00;;;;;;;2.87;100.00;100415.95;220452;1268;137142;-88
2023/02/20 07:40:12;;;;;;;16.90;7.40;;;;;;;2.96;100.00;100411.21;219861;1272;138516;-87
2023/02/20 07:46:14;;;;;;;16.40;6.90;;;;;;;3.05;100.00;100393.61;220309;1272;138803;-87
2023/02/20 07:58:16;;;;;;;16.20;7.90;;;;;;;3.20;100.00;100393.21;219780;1269;138761;-87
2023/02/20 08:16:19;;;;;;;18.80;8.60;;;;;;;3.37;100.00;100363.95;220290;1269;138134;-89
2023/02/20 08:22:21;;;;;;;16.20;7.20;;;;;;;3.41;100.00;100362.33;220410;1269;138203;-89
2023/02/20 08:28:21;;;;;;;18.10;9.10;;;;;;;3.45;100.00;100357.27;219840;1268;138944;-89
2023/02/20 08:34:24;;;;;;;18.80;8.60;;;;;;;3.50;100.00;100348.21;220433;1268;138141;-90
2023/02/20 08:46:26;;;;;;;18.10;9.20;;;;;;;3.67;100.00;100299.63;219859;1272;138745;-91
2023/02/20 08:52:27;;;;;;;19.00;8.80;;;;;;;3.80;100.00;100282.23;223476;1268;138136;-93
2023/02/20 08:58:29;;;;;;;19.70;9.50;;;;;;;3.92;100.00;100269.89;221716;1268;139230;-90
2023/02/20 09:04:30;;;;;;;20.00;10.00;;;;;;;4.07;100.00;100264.89;220391;1269;96519;-91
2023/02/20 09:16:33;;;;;;;16.40;8.50;;;;;;;4.32;100.00;100237.41;221535;1272;138991;-91
2023/02/20 09:22:34;;;;;;;18.40;9.00;;;;;;;4.44;100.00;100211.10;220315;1272;138340;-90
2023/02/20 09:28:35;;;;;;;19.50;8.90;;;;;;;4.56;100.00;100205.41;219912;1269;139115;-92
2023/02/20 09:34:37;;;;;;;27.00;18.20;;;;;;;4.71;100.00;100143.27;220327;1269;96523;-89
2023/02/20 09:40:38;;;;;;;20.00;10.60;;;;;;;4.83;100.00;100113.72;219911;1269;138622;-90
2023/02/20 09:52:44;;;;;;;20.20;9.10;;;;;;;5.07;100.00;100093.05;220716;1269;96590;-87
2023/02/20 09:58:45;;;;;;;21.60;10.70;;;;;;;5.17;100.00;100098.95;220219;1272;139280;-90
2023/02/20 10:04:56;;;;;;;18.30;9.10;;;;;;;5.32;100.00;100099.10;220529;1268;96774;-89
2023/02/20 10:11:05;;;;;;;20.90;10.00;;;;;;;5.46;100.00;100076.40;219791;1272;138258;-89
2023/02/20 10:17:09;;;;;;;17.90;9.70;;;;;;;5.61;100.00;100050.81;219990;1269;139336;-87
2023/02/20 10:23:02;;;;;;;18.60;8.80;;;;;;;5.78;100.00;100026.50;220442;1269;96515;-88
2023/02/20 10:29:12;;;;;;;18.10;8.90;;;;;;;5.97;100.00;100001.74;219997;1268;138887;-86
2023/02/20 10:35:16;;;;;;;19.50;9.10;;;;;;;6.16;100.00;99982.83;220425;1272;96383;-89
2023/02/20 10:41:29;;;;;;;18.20;9.10;;;;;;;6.33;100.00;99957.33;219882;1269;138424;-86
2023/02/20 10:47:28;;;;;;;;;;;;;;;;;;;;;
2023/02/20 10:53:33;;;;;;;19.10;9.10;;;;;;;6.65;100.00;99958.20;220490;1268;96636;-87
2023/02/20 11:05:45;;;;;;;18.20;8.10;;;;;;;6.97;100.00;99935.83;220432;1269;96644;-87
2023/02/20 11:11:46;;;;;;;18.90;9.90;;;;;;;7.11;100.00;99921.59;220402;1268;96453;-91
2023/02/20 11:17:50;;;;;;;16.90;7.90;;;;;;;7.26;100.00;99920.05;219840;1272;138428;-86
2023/02/20 11:23:51;;;;;;;13.80;6.70;;;;;;;7.42;100.00;99899.58;220416;1269;97162;-89
2023/02/20 11:29:55;;;;;;;17.70;7.60;;;;;;;7.56;100.00;99897.13;219857;1272;138888;-90
2023/02/20 11:36:09;;;;;;;17.40;6.40;;;;;;;7.73;100.00;99877.17;220372;1272;96621;-87
2023/02/20 11:42:13;;;;;;;13.60;5.70;;;;;;;7.89;100.00;99872.85;219732;1271;138244;-88
2023/02/20 11:48:22;;;;;;;14.20;6.10;;;;;;;8.03;99.58;99854.86;219795;1272;138757;-90
2023/02/20 11:54:24;;;;;;;10.90;5.10;;;;;;;8.14;98.63;99847.08;220171;1275;96636;-88
2023/02/20 12:00:28;;;;;;;10.20;4.50;;;;;;;8.23;98.50;99826.45;219790;1273;138445;-88
2023/02/20 12:06:45;;;;;;;9.10;4.20;;;;;;;8.30;97.09;99813.30;220638;1272;138431;-85
2023/02/20 12:12:46;;;;;;;10.20;4.40;;;;;;;8.39;96.14;99812.21;219956;1275;97114;-92
2023/02/20 12:18:50;;;;;;;8.90;3.60;;;;;;;8.46;96.04;99810.33;219605;1272;138154;-87
2023/02/20 12:25:15;;;;;;;8.40;3.90;;;;;;;8.48;94.94;99817.40;220364;1271;97107;-91
2023/02/20 12:31:25;;;;;;;10.50;3.90;;;;;;;8.52;94.04;99808.58;219705;1272;138337;-90
2023/02/20 12:37:26;;;;;;;8.90;4.40;;;;;;;8.52;93.99;99810.07;219741;1271;138672;-90
2023/02/20 12:43:33;;;;;;;9.40;3.70;;;;;;;8.51;93.68;99802.61;220299;1272;97235;-88
2023/02/20 12:55:53;;;;;;;7.50;3.10;;;;;;;8.50;93.43;99792.04;220269;1272;96485;-87
2023/02/20 13:02:03;;;;;;;8.90;3.70;;;;;;;8.50;93.11;99778.16;219435;1280;96630;-90
2023/02/20 13:08:16;;;;;;;8.20;3.50;;;;;;;8.49;93.39;99754.26;218229;1280;138166;-90
2023/02/20 13:20:40;;;;;;;;;;;;;;;;;;;;;
2023/02/20 13:26:31;;;;;;;8.00;3.60;;;;;;;8.55;93.41;99742.55;219664;1272;138653;-89
2023/02/20 13:32:35;;;;;;;10.40;3.90;;;;;;;8.58;93.79;99736.30;219960;1274;137938;-90
2023/02/20 13:50:40;;;;;;;;;;;;;;;;;;;;;
2023/02/20 13:56:43;;;;;;;11.90;4.10;;;;;;;8.68;94.28;99719.14;219510;1272;138239;-88
2023/02/20 14:03:03;;;;;;;9.20;4.40;;;;;;;8.69;94.58;99709.67;220154;1272;137840;-87
2023/02/20 14:15:08;;;;;;;8.80;4.40;;;;;;;8.73;94.95;99699.67;219537;1279;138291;-92
2023/02/20 14:27:19;;;;;;;10.70;4.20;;;;;;;8.75;95.48;99702.35;219605;1274;137942;-88
2023/02/20 14:39:46;;;;;;;9.60;4.10;;;;;;;8.78;96.50;99687.86;219538;1275;138071;-89
2023/02/20 14:46:00;;;;;;;19.10;8.70;;;;;;;8.78;96.99;99677.27;220356;1272;137896;-86
2023/02/20 14:52:03;;;;;;;15.40;7.20;;;;;;;8.81;97.39;99675.89;220104;1273;138672;-86
2023/02/20 15:04:09;;;;;;;10.40;4.10;;;;;;;8.84;97.90;99680.05;220357;1275;138119;-89
2023/02/20 15:10:15;;;;;;;10.10;4.70;;;;;;;8.85;98.10;99671.91;219782;1272;138228;-90
2023/02/20 15:16:17;;;;;;;10.30;4.40;;;;;;;8.86;98.33;99679.61;220349;1271;138100;-92
2023/02/20 15:22:31;;;;;;;10.10;4.40;;;;;;;8.84;98.62;99665.17;220439;1272;139200;-89
2023/02/20 15:34:57;;;;;;;13.10;6.20;;;;;;;8.85;98.60;99649.34;220403;1275;138775;-89
2023/02/20 15:41:01;;;;;;;11.70;5.00;;;;;;;8.87;98.49;99647.23;219930;1274;140423;-93
2023/02/20 15:47:03;;;;;;;11.50;5.10;;;;;;;8.88;98.28;99649.83;219940;1270;138106;-92
2023/02/20 15:53:04;;;;;;;10.40;4.30;;;;;;;8.89;98.30;99643.71;220379;1272;138592;-92
2023/02/20 15:59:08;;;;;;;11.00;4.70;;;;;;;8.89;98.20;99655.08;219988;1271;138256;-89
2023/02/20 16:05:09;;;;;;;10.00;4.90;;;;;;;8.89;98.10;99657.89;220367;1272;138172;-88
2023/02/20 16:11:10;;;;;;;15.50;7.60;;;;;;;8.90;98.00;99672.80;220038;1270;138835;-86
2023/02/20 16:29:20;;;;;;;12.80;5.90;;;;;;;8.93;97.72;99676.42;219671;1275;138362;-91
2023/02/20 16:35:15;;;;;;;11.60;5.10;;;;;;;8.93;97.87;99680.34;220291;1272;138357;-90
2023/02/20 16:41:17;;;;;;;12.70;6.00;;;;;;;8.94;97.79;99680.20;219999;1273;138188;-93
2023/02/20 16:47:18;;;;;;;10.40;5.40;;;;;;;8.91;98.19;99681.34;219958;1275;138862;-89
2023/02/20 16:59:21;;;;;;;14.00;7.10;;;;;;;8.89;98.39;99695.38;219830;1270;139185;-88
2023/02/20 17:05:22;;;;;;;13.20;6.90;;;;;;;8.90;98.51;99692.88;220418;1271;138073;-91
2023/02/20 17:11:47;;;;;;;13.40;6.70;;;;;;;8.89;98.59;99698.83;215813;1270;5417180;-88
2023/02/20 17:17:32;;;;;;;12.60;6.10;;;;;;;8.90;98.81;99695.30;219894;1275;138521;-88
2023/02/20 17:29:27;;;;;;;;;;;;;;;;;;;;;
2023/02/20 17:35:36;;;;;;;13.80;6.60;;;;;;;8.95;99.29;99704.51;220580;1271;137858;-89
2023/02/20 17:41:37;;;;;;;14.30;6.50;;;;;;;8.93;99.32;99707.78;220229;1271;138338;-91
2023/02/20 17:53:39;;;;;;;19.50;9.10;;;;;;;8.97;99.64;99714.87;221189;1267;137892;-92
2023/02/20 17:59:41;;;;;;;18.30;8.00;;;;;;;8.98;99.72;99712.05;220639;1267;138599;-93
2023/02/20 18:05:43;;;;;;;12.80;6.80;;;;;;;8.96;99.99;99705.68;221340;1270;107395;-93
2023/02/20 18:17:46;;;;;;;12.30;5.90;;;;;;;8.98;100.00;99704.14;220300;1267;138381;-93
2023/02/20 18:23:47;;;;;;;13.50;6.20;;;;;;;9.01;100.00;99705.64;220938;1267;105671;-88
2023/02/20 18:35:50;;;;;;;8.40;4.40;;;;;;;9.01;100.00;99699.92;220927;1270;137918;-94
2023/02/20 18:41:51;;;;;;;12.00;5.40;;;;;;;9.01;100.00;99701.88;220632;1267;137723;-90
2023/02/20 18:47:54;;;;;;;10.10;4.50;;;;;;;9.00;100.00;99704.23;220546;1270;138680;-93
2023/02/20 18:59:55;;;;;;;9.20;4.50;;;;;;;9.04;100.00;99680.72;220827;1267;138872;-90
2023/02/20 19:11:58;;;;;;;10.20;3.80;;;;;;;9.05;100.00;99665.98;220250;1266;138110;-86
2023/02/20 19:17:59;;;;;;;9.40;4.70;;;;;;;9.03;100.00;99661.73;220312;1267;138401;-92
2023/02/20 19:24:02;;;;;;;9.70;5.30;;;;;;;9.03;100.00;99659.54;220857;1270;108802;-88
2023/02/20 19:30:02;;;;;;;9.90;4.20;;;;;;;9.00;100.00;99640.95;220319;1267;138313;-92
2023/02/20 19:35:54;;;;;;;;;;;;;;;;;;;;;
2023/02/20 19:41:57;;;;;;;9.70;4.80;;;;;;;8.94;100.00;99637.46;220126;1267;138606;-93
2023/02/20 19:47:58;;;;;;;10.70;4.80;;;;;;;8.92;100.00;99638.08;220262;1270;138041;-89
2023/02/20 19:53:57;;;;;;;;;;;;;;;;;;;;;
2023/02/20 19:59:59;;;;;;;12.00;6.10;;;;;;;8.86;100.00;99655.23;220060;1270;138572;-90
2023/02/20 20:06:00;;;;;;;37.20;18.80;;;;;;;8.85;100.00;99655.84;220585;1269;138138;-91
2023/02/20 20:12:11;;;;;;;;;;;;;;;;;;;;;
2023/02/20 20:18:13;;;;;;;;;;;;;;;;;;;;;
2023/02/20 20:24:05;;;;;;;10.90;6.30;;;;;;;8.76;100.00;99668.27;220685;1270;138037;-87
2023/02/20 20:35:58;;;;;;;;;;;;;;;;;;;;;
2023/02/20 20:42:07;;;;;;;11.10;5.70;;;;;;;8.66;100.00;99688.89;220882;1270;143933;-93
2023/02/20 20:54:12;;;;;;;13.90;8.10;;;;;;;8.60;100.00;99689.55;220896;1270;138357;-93
2023/02/20 21:06:14;;;;;;;10.90;5.10;;;;;;;8.51;100.00;99685.56;220984;1270;107880;-91
2023/02/20 21:12:16;;;;;;;12.00;5.10;;;;;;;8.48;100.00;99680.05;220401;1267;139268;-90
2023/02/20 21:18:17;;;;;;;10.10;4.40;;;;;;;8.48;100.00;99674.19;220212;1270;138494;-89
2023/02/20 21:24:18;;;;;;;11.00;5.30;;;;;;;8.50;100.00;99670.36;220853;1270;138317;-92
2023/02/20 21:30:19;;;;;;;12.10;4.80;;;;;;;8.53;100.00;99664.65;220500;1267;138946;-92
2023/02/20 21:36:10;;;;;;;;;;;;;;;;;;;;;
2023/02/20 21:54:13;;;;;;;7.90;3.20;;;;;;;8.62;100.00;99659.93;221007;1267;137818;-88
